sensor_id;sensor_type;location;lat;lon;timestamp;pressure;altitude;pressure_sealevel;temperature;humidity
75794;BME280;64418;47.536;19.074;2023-03-01T00:02:14;101388.50;;;3.97;62.69
75794;BME280;64418;47.536;19.074;2023-03-01T00:04:40;101387.69;;;3.96;62.62
75794;BME280;64418;47.536;19.074;2023-03-01T00:07:06;101384.28;;;3.94;62.76
75794;BME280;64418;47.536;19.074;2023-03-01T00:09:33;101380.75;;;3.94;62.70
75794;BME280;64418;47.536;19.074;2023-03-01T00:12:02;101380.03;;;3.92;62.81
75794;BME280;64418;47.536;19.074;2023-03-01T00:14:27;101380.03;;;3.92;62.80
75794;BME280;64418;47.536;19.074;2023-03-01T00:16:56;101380.47;;;3.87;63.08
75794;BME280;64418;47.536;19.074;2023-03-01T00:19:22;101372.81;;;3.82;62.94
75794;BME280;64418;47.536;19.074;2023-03-01T00:21:50;101388.22;;;3.90;62.98
75794;BME280;64418;47.536;19.074;2023-03-01T00:24:16;101391.06;;;3.88;62.76
75794;BME280;64418;47.536;19.074;2023-03-01T00:26:43;101383.69;;;3.91;62.78
75794;BME280;64418;47.536;19.074;2023-03-01T00:29:09;101384.56;;;3.91;62.75
75794;BME280;64418;47.536;19.074;2023-03-01T00:31:35;101381.75;;;3.93;62.53
75794;BME280;64418;47.536;19.074;2023-03-01T00:34:04;101385.25;;;3.93;62.36
75794;BME280;64418;47.536;19.074;2023-03-01T00:36:33;101390.78;;;3.92;62.30
75794;BME280;64418;47.536;19.074;2023-03-01T00:38:59;101387.94;;;3.93;62.16
75794;BME280;64418;47.536;19.074;2023-03-01T00:41:25;101392.47;;;3.93;61.95
75794;BME280;64418;47.536;19.074;2023-03-01T00:43:52;101390.47;;;3.95;61.87
75794;BME280;64418;47.536;19.074;2023-03-01T00:46:21;101389.50;;;3.96;61.73
75794;BME280;64418;47.536;19.074;2023-03-01T00:48:47;101393.84;;;3.97;61.69
75794;BME280;64418;47.536;19.074;2023-03-01T00:51:14;101399.22;;;3.97;61.50
75794;BME280;64418;47.536;19.074;2023-03-01T00:53:43;101386.50;;;3.89;61.52
75794;BME280;64418;47.536;19.074;2023-03-01T00:56:10;101395.84;;;3.95;61.48
75794;BME280;64418;47.536;19.074;2023-03-01T00:58:58;101396.69;;;3.95;61.46
75794;BME280;64418;47.536;19.074;2023-03-01T01:01:26;101399.50;;;3.94;61.46
75794;BME280;64418;47.536;19.074;2023-03-01T01:03:54;101394.16;;;3.94;61.39
75794;BME280;64418;47.536;19.074;2023-03-01T01:06:22;101396.97;;;3.92;61.36
75794;BME280;64418;47.536;19.074;2023-03-01T01:08:49;101398.81;;;3.92;61.49
75794;BME280;64418;47.536;19.074;2023-03-01T01:11:15;101385.69;;;3.88;61.90
75794;BME280;64418;47.536;19.074;2023-03-01T01:13:43;101389.06;;;3.91;61.99
75794;BME280;64418;47.536;19.074;2023-03-01T01:16:11;101387.38;;;3.89;62.10
75794;BME280;64418;47.536;19.074;2023-03-01T01:18:38;101383.00;;;3.88;62.01
75794;BME280;64418;47.536;19.074;2023-03-01T01:21:06;101382.28;;;3.86;62.11
75794;BME280;64418;47.536;19.074;2023-03-01T01:23:31;101379.59;;;3.86;62.29
75794;BME280;64418;47.536;19.074;2023-03-01T01:25:57;101367.91;;;3.87;62.32
75794;BME280;64418;47.536;19.074;2023-03-01T01:28:23;101372.41;;;3.87;62.55
75794;BME280;64418;47.536;19.074;2023-03-01T01:31:08;101367.06;;;3.87;62.76
75794;BME280;64418;47.536;19.074;2023-03-01T01:33:36;101357.19;;;3.87;63.02
75794;BME280;64418;47.536;19.074;2023-03-01T01:36:02;101352.81;;;3.86;63.10
75794;BME280;64418;47.536;19.074;2023-03-01T01:38:28;101345.03;;;3.83;63.25
75794;BME280;64418;47.536;19.074;2023-03-01T01:40:54;101339.69;;;3.83;63.45
75794;BME280;64418;47.536;19.074;2023-03-01T01:43:22;101337.97;;;3.82;63.23
75794;BME280;64418;47.536;19.074;2023-03-01T01:45:48;101347.72;;;3.83;63.78
75794;BME280;64418;47.536;19.074;2023-03-01T01:48:17;101345.16;;;3.82;63.72
75794;BME280;64418;47.536;19.074;2023-03-01T01:50:50;101340.94;;;3.79;63.81
75794;BME280;64418;47.536;19.074;2023-03-01T01:53:19;101337.28;;;3.80;64.02
75794;BME280;64418;47.536;19.074;2023-03-01T01:55:47;101332.63;;;3.82;63.71
75794;BME280;64418;47.536;19.074;2023-03-01T01:58:17;101335.00;;;3.85;63.50
75794;BME280;64418;47.536;19.074;2023-03-01T02:00:43;101328.00;;;3.84;63.83
75794;BME280;64418;47.536;19.074;2023-03-01T02:03:12;101329.94;;;3.82;64.04
75794;BME280;64418;47.536;19.074;2023-03-01T02:05:42;101331.66;;;3.83;64.21
75794;BME280;64418;47.536;19.074;2023-03-01T02:08:14;101321.91;;;3.82;64.32
75794;BME280;64418;47.536;19.074;2023-03-01T02:10:41;101322.19;;;3.79;64.50
75794;BME280;64418;47.536;19.074;2023-03-01T02:13:27;101324.47;;;3.84;64.53
75794;BME280;64418;47.536;19.074;2023-03-01T02:15:53;101325.03;;;3.87;64.26
75794;BME280;64418;47.536;19.074;2023-03-01T02:18:21;101327.81;;;3.86;64.60
75794;BME280;64418;47.536;19.074;2023-03-01T02:21:19;101323.31;;;3.86;64.54
75794;BME280;64418;47.536;19.074;2023-03-01T02:23:50;101317.97;;;3.86;64.36
75794;BME280;64418;47.536;19.074;2023-03-01T02:26:45;101314.31;;;3.87;64.10
75794;BME280;64418;47.536;19.074;2023-03-01T02:29:14;101310.91;;;3.85;63.89
75794;BME280;64418;47.536;19.074;2023-03-01T02:31:40;101315.44;;;3.85;63.88
75794;BME280;64418;47.536;19.074;2023-03-01T02:34:07;101315.56;;;3.83;63.87
75794;BME280;64418;47.536;19.074;2023-03-01T02:36:36;101311.19;;;3.82;64.32
75794;BME280;64418;47.536;19.074;2023-03-01T02:39:04;101307.81;;;3.80;64.58
75794;BME280;64418;47.536;19.074;2023-03-01T02:41:33;101299.78;;;3.80;64.83
75794;BME280;64418;47.536;19.074;2023-03-01T02:44:01;101301.03;;;3.76;64.92
75794;BME280;64418;47.536;19.074;2023-03-01T02:46:28;101297.38;;;3.77;65.00
75794;BME280;64418;47.536;19.074;2023-03-01T02:48:56;101296.78;;;3.74;65.25
75794;BME280;64418;47.536;19.074;2023-03-01T02:51:41;101297.63;;;3.74;65.15
75794;BME280;64418;47.536;19.074;2023-03-01T02:54:17;101295.97;;;3.73;65.43
75794;BME280;64418;47.536;19.074;2023-03-01T02:56:50;101287.06;;;3.73;65.59
75794;BME280;64418;47.536;19.074;2023-03-01T02:59:37;101278.75;;;3.66;65.86
75794;BME280;64418;47.536;19.074;2023-03-01T03:02:05;101293.12;;;3.65;66.21
75794;BME280;64418;47.536;19.074;2023-03-01T03:04:31;101286.34;;;3.61;66.59
75794;BME280;64418;47.536;19.074;2023-03-01T03:07:17;101281.28;;;3.58;66.56
75794;BME280;64418;47.536;19.074;2023-03-01T03:09:43;101277.87;;;3.56;66.86
75794;BME280;64418;47.536;19.074;2023-03-01T03:12:08;101292.25;;;3.55;66.67
75794;BME280;64418;47.536;19.074;2023-03-01T03:14:35;101281.53;;;3.55;66.68
75794;BME280;64418;47.536;19.074;2023-03-01T03:17:00;101290.28;;;3.57;66.77
75794;BME280;64418;47.536;19.074;2023-03-01T03:19:27;101282.13;;;3.59;66.76
75794;BME280;64418;47.536;19.074;2023-03-01T03:21:54;101286.34;;;3.61;66.68
75794;BME280;64418;47.536;19.074;2023-03-01T03:24:19;101286.19;;;3.63;67.00
75794;BME280;64418;47.536;19.074;2023-03-01T03:26:48;101287.78;;;3.65;67.03
75794;BME280;64418;47.536;19.074;2023-03-01T03:29:14;101283.81;;;3.69;66.86
75794;BME280;64418;47.536;19.074;2023-03-01T03:31:40;101276.47;;;3.71;66.80
75794;BME280;64418;47.536;19.074;2023-03-01T03:34:05;101271.13;;;3.71;66.81
75794;BME280;64418;47.536;19.074;2023-03-01T03:36:33;101260.97;;;3.65;66.86
75794;BME280;64418;47.536;19.074;2023-03-01T03:38:58;101279.88;;;3.73;66.62
75794;BME280;64418;47.536;19.074;2023-03-01T03:41:26;101271.84;;;3.73;66.93
75794;BME280;64418;47.536;19.074;2023-03-01T03:43:54;101277.22;;;3.73;66.78
75794;BME280;64418;47.536;19.074;2023-03-01T03:46:20;101274.78;;;3.70;66.72
75794;BME280;64418;47.536;19.074;2023-03-01T03:48:46;101276.47;;;3.71;66.77
75794;BME280;64418;47.536;19.074;2023-03-01T03:51:13;101277.34;;;3.72;66.68
75794;BME280;64418;47.536;19.074;2023-03-01T03:53:41;101273.13;;;3.69;66.79
75794;BME280;64418;47.536;19.074;2023-03-01T03:56:08;101269.72;;;3.67;66.71
75794;BME280;64418;47.536;19.074;2023-03-01T03:58:34;101277.34;;;3.72;66.76
75794;BME280;64418;47.536;19.074;2023-03-01T04:01:00;101281.84;;;3.71;66.54
75794;BME280;64418;47.536;19.074;2023-03-01T04:03:27;101280.56;;;3.75;66.29
75794;BME280;64418;47.536;19.074;2023-03-01T04:05:53;101285.94;;;3.75;66.21
75794;BME280;64418;47.536;19.074;2023-03-01T04:08:20;101290.44;;;3.75;66.06
75794;BME280;64418;47.536;19.074;2023-03-01T04:10:49;101283.25;;;3.75;65.81
75794;BME280;64418;47.536;19.074;2023-03-01T04:13:17;101283.12;;;3.77;65.50
75794;BME280;64418;47.536;19.074;2023-03-01T04:15:44;101285.09;;;3.75;65.28
75794;BME280;64418;47.536;19.074;2023-03-01T04:18:12;101282.56;;;3.73;65.07
75794;BME280;64418;47.536;19.074;2023-03-01T04:20:38;101285.25;;;3.73;64.92
75794;BME280;64418;47.536;19.074;2023-03-01T04:23:07;101287.19;;;3.71;64.90
75794;BME280;64418;47.536;19.074;2023-03-01T04:25:33;101290.84;;;3.70;64.84
75794;BME280;64418;47.536;19.074;2023-03-01T04:28:00;101288.34;;;3.69;64.87
75794;BME280;64418;47.536;19.074;2023-03-01T04:30:27;101290.16;;;3.68;65.15
75794;BME280;64418;47.536;19.074;2023-03-01T04:32:52;101290.16;;;3.68;65.14
75794;BME280;64418;47.536;19.074;2023-03-01T04:35:18;101287.47;;;3.68;65.24
75794;BME280;64418;47.536;19.074;2023-03-01T04:37:44;101284.81;;;3.68;65.34
75794;BME280;64418;47.536;19.074;2023-03-01T04:40:11;101280.72;;;3.64;65.24
75794;BME280;64418;47.536;19.074;2023-03-01T04:42:36;101286.06;;;3.64;65.19
75794;BME280;64418;47.536;19.074;2023-03-01T04:45:04;101289.72;;;3.63;65.33
75794;BME280;64418;47.536;19.074;2023-03-01T04:47:30;101284.66;;;3.60;65.31
75794;BME280;64418;47.536;19.074;2023-03-01T04:49:59;101275.34;;;3.64;65.25
75794;BME280;64418;47.536;19.074;2023-03-01T04:52:25;101274.66;;;3.62;65.33
75794;BME280;64418;47.536;19.074;2023-03-01T04:54:51;101275.47;;;3.63;65.23
75794;BME280;64418;47.536;19.074;2023-03-01T04:57:19;101269.31;;;3.62;65.29
75794;BME280;64418;47.536;19.074;2023-03-01T04:59:45;101267.59;;;3.61;65.31
75794;BME280;64418;47.536;19.074;2023-03-01T05:02:12;101265.06;;;3.60;65.39
75794;BME280;64418;47.536;19.074;2023-03-01T05:04:38;101234.59;;;3.42;65.37
75794;BME280;64418;47.536;19.074;2023-03-01T05:07:24;101269.56;;;3.59;65.52
75794;BME280;64418;47.536;19.074;2023-03-01T05:09:50;101272.41;;;3.58;65.46
75794;BME280;64418;47.536;19.074;2023-03-01T05:12:36;101269.44;;;3.61;65.60
75794;BME280;64418;47.536;19.074;2023-03-01T05:15:03;101265.91;;;3.60;65.61
75794;BME280;64418;47.536;19.074;2023-03-01T05:17:30;101270.56;;;3.58;65.70
75794;BME280;64418;47.536;19.074;2023-03-01T05:19:57;101269.56;;;3.59;65.90
75794;BME280;64418;47.536;19.074;2023-03-01T05:22:23;101265.22;;;3.58;65.77
75794;BME280;64418;47.536;19.074;2023-03-01T05:24:49;101266.88;;;3.59;65.81
75794;BME280;64418;47.536;19.074;2023-03-01T05:27:14;101265.91;;;3.60;66.13
75794;BME280;64418;47.536;19.074;2023-03-01T05:29:40;101266.63;;;3.62;66.01
75794;BME280;64418;47.536;19.074;2023-03-01T05:32:06;101263.78;;;3.64;66.10
75794;BME280;64418;47.536;19.074;2023-03-01T05:34:35;101270.84;;;3.65;66.26
75794;BME280;64418;47.536;19.074;2023-03-01T05:37:01;101273.81;;;3.62;66.31
75794;BME280;64418;47.536;19.074;2023-03-01T05:39:29;101278.03;;;3.64;66.34
75794;BME280;64418;47.536;19.074;2023-03-01T05:41:57;101262.94;;;3.63;66.31
75794;BME280;64418;47.536;19.074;2023-03-01T05:44:24;101271.41;;;3.68;66.31
75794;BME280;64418;47.536;19.074;2023-03-01T05:46:50;101278.19;;;3.72;66.18
75794;BME280;64418;47.536;19.074;2023-03-01T05:49:16;101278.03;;;3.74;66.17
75794;BME280;64418;47.536;19.074;2023-03-01T05:51:47;101286.91;;;3.74;66.28
75794;BME280;64418;47.536;19.074;2023-03-01T05:54:13;101296.53;;;3.77;66.13
75794;BME280;64418;47.536;19.074;2023-03-01T05:56:39;101288.31;;;3.78;66.17
75794;BME280;64418;47.536;19.074;2023-03-01T05:59:05;101293.69;;;3.78;66.24
75794;BME280;64418;47.536;19.074;2023-03-01T06:01:31;101295.09;;;3.82;66.21
75794;BME280;64418;47.536;19.074;2023-03-01T06:03:57;101292.13;;;3.85;66.19
75794;BME280;64418;47.536;19.074;2023-03-01T06:06:29;101283.41;;;3.83;66.14
75794;BME280;64418;47.536;19.074;2023-03-01T06:08:58;101291.16;;;3.86;66.01
75794;BME280;64418;47.536;19.074;2023-03-01T06:11:26;101296.50;;;3.86;65.94
75794;BME280;64418;47.536;19.074;2023-03-01T06:13:52;101291.59;;;3.92;66.07
75794;BME280;64418;47.536;19.074;2023-03-01T06:16:18;101297.63;;;3.94;66.00
75794;BME280;64418;47.536;19.074;2023-03-01T06:18:44;101294.28;;;3.92;66.14
75794;BME280;64418;47.536;19.074;2023-03-01T06:21:09;101299.06;;;3.98;66.00
75794;BME280;64418;47.536;19.074;2023-03-01T06:23:36;101300.75;;;3.99;65.98
75794;BME280;64418;47.536;19.074;2023-03-01T06:26:07;101291.72;;;4.00;65.91
75794;BME280;64418;47.536;19.074;2023-03-01T06:28:33;101299.31;;;4.04;65.80
75794;BME280;64418;47.536;19.074;2023-03-01T06:30:58;101294.56;;;4.08;65.61
75794;BME280;64418;47.536;19.074;2023-03-01T06:33:24;101299.62;;;4.11;65.46
75794;BME280;64418;47.536;19.074;2023-03-01T06:35:50;101300.75;;;4.18;65.24
75794;BME280;64418;47.536;19.074;2023-03-01T06:38:16;101295.38;;;4.18;65.09
75794;BME280;64418;47.536;19.074;2023-03-01T06:40:43;101302.44;;;4.19;65.03
75794;BME280;64418;47.536;19.074;2023-03-01T06:43:10;101302.72;;;4.25;64.95
75794;BME280;64418;47.536;19.074;2023-03-01T06:45:37;101303.41;;;4.37;65.10
75794;BME280;64418;47.536;19.074;2023-03-01T06:48:04;101312.53;;;4.63;65.19
75794;BME280;64418;47.536;19.074;2023-03-01T06:50:30;101316.06;;;4.54;63.99
75794;BME280;64418;47.536;19.074;2023-03-01T06:53:16;101310.69;;;4.64;64.06
75794;BME280;64418;47.536;19.074;2023-03-01T06:55:42;101320.16;;;4.58;64.03
75794;BME280;64418;47.536;19.074;2023-03-01T06:58:10;101315.75;;;4.67;63.19
75794;BME280;64418;47.536;19.074;2023-03-01T07:00:55;101316.19;;;4.72;63.24
75794;BME280;64418;47.536;19.074;2023-03-01T07:03:22;101317.91;;;4.63;63.02
75794;BME280;64418;47.536;19.074;2023-03-01T07:05:48;101316.19;;;4.72;62.81
75794;BME280;64418;47.536;19.074;2023-03-01T07:08:14;101319.84;;;4.71;62.80
75794;BME280;64418;47.536;19.074;2023-03-01T07:10:40;101319.00;;;4.70;62.77
75794;BME280;64418;47.536;19.074;2023-03-01T07:13:06;101309.97;;;4.71;62.59
75794;BME280;64418;47.536;19.074;2023-03-01T07:15:34;101307.66;;;4.76;62.44
75794;BME280;64418;47.536;19.074;2023-03-01T07:18:00;101312.19;;;4.85;62.34
75794;BME280;64418;47.536;19.074;2023-03-01T07:20:26;101313.28;;;4.93;62.06
75794;BME280;64418;47.536;19.074;2023-03-01T07:22:52;101311.31;;;4.85;62.06
75794;BME280;64418;47.536;19.074;2023-03-01T07:25:19;101305.34;;;4.91;61.84
75794;BME280;64418;47.536;19.074;2023-03-01T07:27:49;101310.09;;;5.07;61.38
75794;BME280;64418;47.536;19.074;2023-03-01T07:30:36;101304.16;;;5.13;61.13
75794;BME280;64418;47.536;19.074;2023-03-01T07:33:02;101310.41;;;5.31;60.62
75794;BME280;64418;47.536;19.074;2023-03-01T07:35:28;101312.50;;;5.37;60.24
75794;BME280;64418;47.536;19.074;2023-03-01T07:37:55;101313.09;;;5.58;59.72
75794;BME280;64418;47.536;19.074;2023-03-01T07:40:22;101305.41;;;5.63;59.53
75794;BME280;64418;47.536;19.074;2023-03-01T07:42:47;101308.16;;;5.54;59.92
75794;BME280;64418;47.536;19.074;2023-03-01T07:45:13;101306.69;;;5.59;59.55
75794;BME280;64418;47.536;19.074;2023-03-01T07:47:40;101310.50;;;5.66;59.23
75794;BME280;64418;47.536;19.074;2023-03-01T07:50:25;101307.19;;;5.72;59.07
75794;BME280;64418;47.536;19.074;2023-03-01T07:52:51;101300.34;;;5.60;58.79
75794;BME280;64418;47.536;19.074;2023-03-01T07:55:17;101298.16;;;5.91;58.21
75794;BME280;64418;47.536;19.074;2023-03-01T07:57:43;101291.69;;;6.02;58.47
75794;BME280;64418;47.536;19.074;2023-03-01T08:00:11;101287.41;;;6.35;57.31
75794;BME280;64418;47.536;19.074;2023-03-01T08:03:01;101281.84;;;6.54;56.75
75794;BME280;64418;47.536;19.074;2023-03-01T08:05:49;101284.91;;;6.33;57.40
75794;BME280;64418;47.536;19.074;2023-03-01T08:08:36;101283.12;;;6.42;57.05
75794;BME280;64418;47.536;19.074;2023-03-01T08:11:04;101283.59;;;6.37;57.02
75794;BME280;64418;47.536;19.074;2023-03-01T08:13:31;101292.25;;;6.23;57.22
75794;BME280;64418;47.536;19.074;2023-03-01T08:16:01;101281.22;;;6.34;57.07
75794;BME280;64418;47.536;19.074;2023-03-01T08:18:28;101281.56;;;6.39;57.00
75794;BME280;64418;47.536;19.074;2023-03-01T08:20:53;101279.91;;;6.38;56.52
75794;BME280;64418;47.536;19.074;2023-03-01T08:23:19;101286.50;;;6.69;55.98
75794;BME280;64418;47.536;19.074;2023-03-01T08:26:06;101281.16;;;6.52;56.13
75794;BME280;64418;47.536;19.074;2023-03-01T08:28:32;101278.56;;;6.94;55.31
75794;BME280;64418;47.536;19.074;2023-03-01T08:31:20;101275.66;;;7.21;53.98
75794;BME280;64418;47.536;19.074;2023-03-01T08:34:09;101275.44;;;7.14;53.16
75794;BME280;64418;47.536;19.074;2023-03-01T08:36:55;101274.22;;;7.01;53.47
75794;BME280;64418;47.536;19.074;2023-03-01T08:39:21;101276.09;;;7.50;52.09
75794;BME280;64418;47.536;19.074;2023-03-01T08:42:07;101271.72;;;7.57;51.77
75794;BME280;64418;47.536;19.074;2023-03-01T08:44:33;101265.53;;;8.13;51.49
75794;BME280;64418;47.536;19.074;2023-03-01T08:47:18;101258.25;;;8.54;49.82
75794;BME280;64418;47.536;19.074;2023-03-01T08:49:45;101259.06;;;9.18;47.69
75794;BME280;64418;47.536;19.074;2023-03-01T08:52:11;101261.59;;;9.58;46.27
75794;BME280;64418;47.536;19.074;2023-03-01T08:54:57;101258.84;;;10.12;45.40
75794;BME280;64418;47.536;19.074;2023-03-01T08:57:23;101261.59;;;11.08;43.57
75794;BME280;64418;47.536;19.074;2023-03-01T08:59:49;101254.75;;;11.77;42.50
75794;BME280;64418;47.536;19.074;2023-03-01T09:02:35;101252.31;;;12.52;40.49
75794;BME280;64418;47.536;19.074;2023-03-01T09:05:02;101256.69;;;12.88;39.52
75794;BME280;64418;47.536;19.074;2023-03-01T09:07:28;101235.34;;;13.73;37.65
75794;BME280;64418;47.536;19.074;2023-03-01T09:09:54;101253.81;;;13.24;37.20
75794;BME280;64418;47.536;19.074;2023-03-01T09:12:20;101253.22;;;12.66;37.71
75794;BME280;64418;47.536;19.074;2023-03-01T09:15:07;101252.50;;;15.12;35.18
75794;BME280;64418;47.536;19.074;2023-03-01T09:17:34;101237.88;;;13.94;35.63
75794;BME280;64418;47.536;19.074;2023-03-01T09:20:01;101242.31;;;14.15;35.84
75794;BME280;64418;47.536;19.074;2023-03-01T09:22:27;101234.16;;;14.55;36.20
75794;BME280;64418;47.536;19.074;2023-03-01T09:24:53;101237.41;;;13.65;36.80
75794;BME280;64418;47.536;19.074;2023-03-01T09:27:19;101241.09;;;13.37;37.44
75794;BME280;64418;47.536;19.074;2023-03-01T09:30:06;101231.47;;;13.35;37.06
75794;BME280;64418;47.536;19.074;2023-03-01T09:32:32;101226.19;;;14.73;35.26
75794;BME280;64418;47.536;19.074;2023-03-01T09:35:19;101205.91;;;13.29;37.38
75794;BME280;64418;47.536;19.074;2023-03-01T09:38:05;101215.81;;;13.09;37.85
75794;BME280;64418;47.536;19.074;2023-03-01T09:40:34;101214.34;;;13.54;37.07
75794;BME280;64418;47.536;19.074;2023-03-01T09:43:07;101213.44;;;12.93;38.32
75794;BME280;64418;47.536;19.074;2023-03-01T09:46:00;101208.75;;;12.80;37.96
75794;BME280;64418;47.536;19.074;2023-03-01T09:48:33;101204.25;;;13.41;37.36
75794;BME280;64418;47.536;19.074;2023-03-01T09:51:06;101199.50;;;13.09;37.68
75794;BME280;64418;47.536;19.074;2023-03-01T09:53:54;101192.50;;;12.87;38.13
75794;BME280;64418;47.536;19.074;2023-03-01T09:56:24;101192.28;;;12.54;38.84
75794;BME280;64418;47.536;19.074;2023-03-01T09:58:56;101191.78;;;12.72;38.87
75794;BME280;64418;47.536;19.074;2023-03-01T10:01:34;101189.72;;;14.15;35.82
75794;BME280;64418;47.536;19.074;2023-03-01T10:04:09;101187.31;;;13.46;36.75
75794;BME280;64418;47.536;19.074;2023-03-01T10:07:17;101189.25;;;12.70;37.93
75794;BME280;64418;47.536;19.074;2023-03-01T10:10:10;101188.16;;;12.30;39.27
75794;BME280;64418;47.536;19.074;2023-03-01T10:12:42;101190.31;;;13.71;36.62
75794;BME280;64418;47.536;19.074;2023-03-01T10:15:14;101193.03;;;14.63;35.51
75794;BME280;64418;47.536;19.074;2023-03-01T10:17:46;101183.72;;;16.35;31.88
75794;BME280;64418;47.536;19.074;2023-03-01T10:20:20;101179.87;;;17.93;30.03
75794;BME280;64418;47.536;19.074;2023-03-01T10:23:10;101179.50;;;19.17;27.88
75794;BME280;64418;47.536;19.074;2023-03-01T10:26:26;101168.87;;;19.78;26.64
75794;BME280;64418;47.536;19.074;2023-03-01T10:29:16;101162.22;;;19.34;26.96
75794;BME280;64418;47.536;19.074;2023-03-01T10:31:46;101153.59;;;19.13;27.38
75794;BME280;64418;47.536;19.074;2023-03-01T10:34:15;101155.72;;;18.60;28.10
75794;BME280;64418;47.536;19.074;2023-03-01T10:36:43;101155.00;;;19.56;26.55
75794;BME280;64418;47.536;19.074;2023-03-01T10:39:30;101150.72;;;20.27;25.59
75794;BME280;64418;47.536;19.074;2023-03-01T10:42:21;101150.72;;;18.68;27.39
75794;BME280;64418;47.536;19.074;2023-03-01T10:45:16;101144.50;;;18.73;27.78
75794;BME280;64418;47.536;19.074;2023-03-01T10:47:43;101138.56;;;20.39;25.54
75794;BME280;64418;47.536;19.074;2023-03-01T10:50:28;101123.31;;;20.92;24.95
75794;BME280;64418;47.536;19.074;2023-03-01T10:53:24;101116.00;;;18.27;28.15
75794;BME280;64418;47.536;19.074;2023-03-01T10:55:59;101117.06;;;18.26;28.64
75794;BME280;64418;47.536;19.074;2023-03-01T10:58:57;101104.37;;;17.79;29.20
75794;BME280;64418;47.536;19.074;2023-03-01T11:01:26;101103.31;;;17.39;30.09
75794;BME280;64418;47.536;19.074;2023-03-01T11:04:11;101112.84;;;18.82;27.87
75794;BME280;64418;47.536;19.074;2023-03-01T11:07:01;101103.69;;;18.42;28.39
75794;BME280;64418;47.536;19.074;2023-03-01T11:09:47;101094.94;;;17.33;30.03
75794;BME280;64418;47.536;19.074;2023-03-01T11:12:16;101103.84;;;18.98;28.26
75794;BME280;64418;47.536;19.074;2023-03-01T11:14:47;101106.06;;;18.73;28.01
75794;BME280;64418;47.536;19.074;2023-03-01T11:17:17;101099.25;;;17.71;29.32
75794;BME280;64418;47.536;19.074;2023-03-01T11:19:59;101090.63;;;16.23;31.62
75794;BME280;64418;47.536;19.074;2023-03-01T11:22:49;101084.84;;;15.64;32.70
75794;BME280;64418;47.536;19.074;2023-03-01T11:25:38;101075.44;;;15.84;32.50
75794;BME280;64418;47.536;19.074;2023-03-01T11:28:10;101076.78;;;14.75;34.48
75794;BME280;64418;47.536;19.074;2023-03-01T11:31:02;101066.09;;;13.63;36.63
75794;BME280;64418;47.536;19.074;2023-03-01T11:33:35;101071.50;;;13.30;37.78
75794;BME280;64418;47.536;19.074;2023-03-01T11:36:06;101076.94;;;13.17;37.92
75794;BME280;64418;47.536;19.074;2023-03-01T11:38:35;101029.53;;;12.92;38.18
75794;BME280;64418;47.536;19.074;2023-03-01T11:41:06;101070.69;;;13.36;38.07
75794;BME280;64418;47.536;19.074;2023-03-01T11:43:41;101061.88;;;13.41;37.97
75794;BME280;64418;47.536;19.074;2023-03-01T11:46:35;101066.09;;;13.43;37.65
75794;BME280;64418;47.536;19.074;2023-03-01T11:49:14;101061.69;;;13.42;37.64
75794;BME280;64418;47.536;19.074;2023-03-01T11:51:52;101062.72;;;13.81;37.63
75794;BME280;64418;47.536;19.074;2023-03-01T11:54:27;101053.09;;;13.32;38.16
75794;BME280;64418;47.536;19.074;2023-03-01T11:57:25;101055.59;;;13.54;38.00
75794;BME280;64418;47.536;19.074;2023-03-01T12:00:30;101055.81;;;13.32;38.50
75794;BME280;64418;47.536;19.074;2023-03-01T12:03:23;101052.22;;;13.19;38.80
75794;BME280;64418;47.536;19.074;2023-03-01T12:08:56;101045.00;;;12.85;39.83
75794;BME280;64418;47.536;19.074;2023-03-01T12:11:57;101046.25;;;12.89;39.64
75794;BME280;64418;47.536;19.074;2023-03-01T12:14:56;101039.34;;;12.80;39.97
75794;BME280;64418;47.536;19.074;2023-03-01T12:17:43;101035.47;;;13.15;39.52
75794;BME280;64418;47.536;19.074;2023-03-01T12:20:20;101031.72;;;13.42;38.87
75794;BME280;64418;47.536;19.074;2023-03-01T12:23:02;101029.03;;;13.29;39.22
75794;BME280;64418;47.536;19.074;2023-03-01T12:25:35;101028.72;;;12.91;39.79
75794;BME280;64418;47.536;19.074;2023-03-01T12:31:10;101012.44;;;13.11;39.45
75794;BME280;64418;47.536;19.074;2023-03-01T12:33:49;101010.37;;;13.20;39.58
75794;BME280;64418;47.536;19.074;2023-03-01T12:36:54;101008.91;;;13.17;39.70
75794;BME280;64418;47.536;19.074;2023-03-01T12:39:34;101007.03;;;13.50;39.17
75794;BME280;64418;47.536;19.074;2023-03-01T12:42:30;101003.47;;;13.17;39.59
75794;BME280;64418;47.536;19.074;2023-03-01T12:48:06;100992.16;;;13.27;39.38
75794;BME280;64418;47.536;19.074;2023-03-01T12:50:40;100990.94;;;13.29;39.79
75794;BME280;64418;47.536;19.074;2023-03-01T12:53:30;100988.34;;;13.01;40.45
75794;BME280;64418;47.536;19.074;2023-03-01T12:56:00;100988.19;;;13.16;40.43
75794;BME280;64418;47.536;19.074;2023-03-01T12:58:30;100985.63;;;13.01;40.62
75794;BME280;64418;47.536;19.074;2023-03-01T13:01:22;100988.59;;;13.46;40.68
75794;BME280;64418;47.536;19.074;2023-03-01T13:04:11;100992.59;;;14.40;38.78
75794;BME280;64418;47.536;19.074;2023-03-01T13:07:10;100987.34;;;13.62;39.65
75794;BME280;64418;47.536;19.074;2023-03-01T13:10:11;100973.03;;;14.88;37.29
75794;BME280;64418;47.536;19.074;2023-03-01T13:12:46;100978.12;;;14.78;37.33
75794;BME280;64418;47.536;19.074;2023-03-01T13:15:34;100972.59;;;14.91;37.42
75794;BME280;64418;47.536;19.074;2023-03-01T13:18:02;100976.97;;;14.92;36.96
75794;BME280;64418;47.536;19.074;2023-03-01T13:20:34;100976.41;;;15.15;36.30
75794;BME280;64418;47.536;19.074;2023-03-01T13:23:24;100985.91;;;14.36;37.78
75794;BME280;64418;47.536;19.074;2023-03-01T13:26:02;100978.00;;;14.15;38.52